sensor_id;sensor_type;location;lat;lon;timestamp;P1;durP1;ratioP1;P2;durP2;ratioP2
19929;SDS011;10127;47.780;9.606;2023-01-15T00:01:02;2.37;;;1.40;;
19929;SDS011;10127;47.780;9.606;2023-01-15T00:03:29;2.40;;;1.70;;
19929;SDS011;10127;47.780;9.606;2023-01-15T00:05:55;5.45;;;2.50;;
19929;SDS011;10127;47.780;9.606;2023-01-15T00:08:25;5.27;;;2.40;;
19929;SDS011;10127;47.780;9.606;2023-01-15T00:10:51;2.33;;;1.70;;
19929;SDS011;10127;47.780;9.606;2023-01-15T00:13:16;4.20;;;1.93;;
19929;SDS011;10127;47.780;9.606;2023-01-15T00:15:42;5.20;;;1.87;;
19929;SDS011;10127;47.780;9.606;2023-01-15T00:18:08;5.07;;;1.87;;
19929;SDS011;10127;47.780;9.606;2023-01-15T00:20:34;2.03;;;1.30;;
19929;SDS011;10127;47.780;9.606;2023-01-15T00:22:59;4.07;;;1.50;;
19929;SDS011;10127;47.780;9.606;2023-01-15T00:25:25;2.97;;;1.60;;
19929;SDS011;10127;47.780;9.606;2023-01-15T00:28:11;2.03;;;1.50;;
19929;SDS011;10127;47.780;9.606;2023-01-15T00:30:39;3.57;;;1.70;;
19929;SDS011;10127;47.780;9.606;2023-01-15T00:33:06;1.90;;;1.47;;
19929;SDS011;10127;47.780;9.606;2023-01-15T00:35:32;2.83;;;1.60;;
19929;SDS011;10127;47.780;9.606;2023-01-15T00:37:57;3.77;;;1.47;;
19929;SDS011;10127;47.780;9.606;2023-01-15T00:40:24;2.90;;;1.50;;
19929;SDS011;10127;47.780;9.606;2023-01-15T00:42:49;1.97;;;1.47;;
19929;SDS011;10127;47.780;9.606;2023-01-15T00:45:15;2.60;;;1.60;;
19929;SDS011;10127;47.780;9.606;2023-01-15T00:47:41;2.97;;;1.90;;
19929;SDS011;10127;47.780;9.606;2023-01-15T00:50:12;3.13;;;1.90;;
19929;SDS011;10127;47.780;9.606;2023-01-15T00:52:39;2.23;;;1.77;;
19929;SDS011;10127;47.780;9.606;2023-01-15T00:55:06;2.63;;;1.50;;
19929;SDS011;10127;47.780;9.606;2023-01-15T00:57:32;1.95;;;1.30;;
19929;SDS011;10127;47.780;9.606;2023-01-15T00:59:58;1.57;;;1.37;;
19929;SDS011;10127;47.780;9.606;2023-01-15T01:02:23;3.17;;;1.40;;
19929;SDS011;10127;47.780;9.606;2023-01-15T01:04:49;1.70;;;1.23;;
19929;SDS011;10127;47.780;9.606;2023-01-15T01:07:15;2.08;;;1.15;;
19929;SDS011;10127;47.780;9.606;2023-01-15T01:09:42;1.70;;;1.20;;
19929;SDS011;10127;47.780;9.606;2023-01-15T01:12:08;1.42;;;1.10;;
19929;SDS011;10127;47.780;9.606;2023-01-15T01:14:33;2.17;;;1.15;;
19929;SDS011;10127;47.780;9.606;2023-01-15T01:17:00;1.58;;;1.25;;
19929;SDS011;10127;47.780;9.606;2023-01-15T01:19:25;1.45;;;1.08;;
19929;SDS011;10127;47.780;9.606;2023-01-15T01:21:51;1.75;;;1.00;;
19929;SDS011;10127;47.780;9.606;2023-01-15T01:24:20;1.38;;;0.95;;
19929;SDS011;10127;47.780;9.606;2023-01-15T01:26:47;2.28;;;0.95;;
19929;SDS011;10127;47.780;9.606;2023-01-15T01:29:18;1.67;;;0.88;;
19929;SDS011;10127;47.780;9.606;2023-01-15T01:31:45;0.77;;;0.65;;
19929;SDS011;10127;47.780;9.606;2023-01-15T01:34:12;1.83;;;0.80;;
19929;SDS011;10127;47.780;9.606;2023-01-15T01:36:39;2.45;;;0.90;;
19929;SDS011;10127;47.780;9.606;2023-01-15T01:39:07;1.45;;;1.08;;
19929;SDS011;10127;47.780;9.606;2023-01-15T01:41:38;1.92;;;0.93;;
19929;SDS011;10127;47.780;9.606;2023-01-15T01:44:57;1.33;;;0.85;;
19929;SDS011;10127;47.780;9.606;2023-01-15T01:46:55;1.38;;;0.90;;
19929;SDS011;10127;47.780;9.606;2023-01-15T01:49:21;2.65;;;1.00;;
19929;SDS011;10127;47.780;9.606;2023-01-15T01:52:31;1.47;;;0.83;;
19929;SDS011;10127;47.780;9.606;2023-01-15T01:54:41;3.58;;;1.20;;
19929;SDS011;10127;47.780;9.606;2023-01-15T01:57:10;1.20;;;0.70;;
19929;SDS011;10127;47.780;9.606;2023-01-15T01:59:36;2.05;;;1.30;;
19929;SDS011;10127;47.780;9.606;2023-01-15T02:02:03;1.13;;;1.02;;
19929;SDS011;10127;47.780;9.606;2023-01-15T02:04:29;3.15;;;1.20;;
19929;SDS011;10127;47.780;9.606;2023-01-15T02:06:55;2.58;;;1.02;;
19929;SDS011;10127;47.780;9.606;2023-01-15T02:09:23;1.23;;;1.10;;
19929;SDS011;10127;47.780;9.606;2023-01-15T02:11:49;2.22;;;1.33;;
19929;SDS011;10127;47.780;9.606;2023-01-15T02:14:23;2.55;;;0.85;;
19929;SDS011;10127;47.780;9.606;2023-01-15T02:17:00;1.75;;;1.10;;
19929;SDS011;10127;47.780;9.606;2023-01-15T02:27:51;2.25;;;0.80;;
19929;SDS011;10127;47.780;9.606;2023-01-15T02:30:39;2.00;;;0.90;;
19929;SDS011;10127;47.780;9.606;2023-01-15T02:33:11;2.00;;;1.15;;
19929;SDS011;10127;47.780;9.606;2023-01-15T02:35:43;3.00;;;1.10;;
19929;SDS011;10127;47.780;9.606;2023-01-15T02:38:16;3.75;;;1.05;;
19929;SDS011;10127;47.780;9.606;2023-01-15T02:40:47;1.88;;;1.10;;
19929;SDS011;10127;47.780;9.606;2023-01-15T02:43:16;2.83;;;1.05;;
19929;SDS011;10127;47.780;9.606;2023-01-15T02:45:46;2.38;;;0.75;;
19929;SDS011;10127;47.780;9.606;2023-01-15T02:48:15;2.20;;;0.90;;
19929;SDS011;10127;47.780;9.606;2023-01-15T03:11:24;1.30;;;0.75;;
19929;SDS011;10127;47.780;9.606;2023-01-15T03:13:57;1.30;;;0.90;;
19929;SDS011;10127;47.780;9.606;2023-01-15T03:16:31;0.85;;;0.80;;
19929;SDS011;10127;47.780;9.606;2023-01-15T03:22:04;1.48;;;0.80;;
19929;SDS011;10127;47.780;9.606;2023-01-15T03:27:32;1.60;;;1.00;;
19929;SDS011;10127;47.780;9.606;2023-01-15T03:30:11;2.10;;;0.93;;
19929;SDS011;10127;47.780;9.606;2023-01-15T03:32:39;1.42;;;0.80;;
19929;SDS011;10127;47.780;9.606;2023-01-15T03:35:36;1.48;;;1.08;;
19929;SDS011;10127;47.780;9.606;2023-01-15T03:38:09;1.55;;;0.88;;
19929;SDS011;10127;47.780;9.606;2023-01-15T03:40:37;1.50;;;0.93;;
19929;SDS011;10127;47.780;9.606;2023-01-15T03:43:12;1.58;;;0.73;;
19929;SDS011;10127;47.780;9.606;2023-01-15T03:46:01;1.02;;;0.63;;
19929;SDS011;10127;47.780;9.606;2023-01-15T03:49:19;1.17;;;0.98;;
19929;SDS011;10127;47.780;9.606;2023-01-15T03:51:23;0.80;;;0.77;;
19929;SDS011;10127;47.780;9.606;2023-01-15T03:53:58;0.63;;;0.60;;
19929;SDS011;10127;47.780;9.606;2023-01-15T03:56:34;1.17;;;0.70;;
19929;SDS011;10127;47.780;9.606;2023-01-15T03:59:18;1.42;;;0.77;;
19929;SDS011;10127;47.780;9.606;2023-01-15T04:01:47;1.08;;;0.88;;
19929;SDS011;10127;47.780;9.606;2023-01-15T04:04:14;2.15;;;1.30;;
19929;SDS011;10127;47.780;9.606;2023-01-15T04:06:40;0.85;;;0.75;;
19929;SDS011;10127;47.780;9.606;2023-01-15T04:09:07;0.95;;;0.80;;
19929;SDS011;10127;47.780;9.606;2023-01-15T04:11:36;1.55;;;0.82;;
19929;SDS011;10127;47.780;9.606;2023-01-15T04:14:02;1.08;;;0.70;;
19929;SDS011;10127;47.780;9.606;2023-01-15T04:16:28;2.47;;;0.80;;
19929;SDS011;10127;47.780;9.606;2023-01-15T04:18:57;1.65;;;0.68;;
19929;SDS011;10127;47.780;9.606;2023-01-15T04:21:23;0.90;;;0.82;;
19929;SDS011;10127;47.780;9.606;2023-01-15T04:23:49;0.70;;;0.70;;
19929;SDS011;10127;47.780;9.606;2023-01-15T04:26:15;1.30;;;1.00;;
19929;SDS011;10127;47.780;9.606;2023-01-15T04:28:41;2.50;;;1.00;;
19929;SDS011;10127;47.780;9.606;2023-01-15T04:31:07;1.63;;;0.98;;
19929;SDS011;10127;47.780;9.606;2023-01-15T04:33:32;1.55;;;0.73;;
19929;SDS011;10127;47.780;9.606;2023-01-15T04:35:58;1.67;;;0.88;;
19929;SDS011;10127;47.780;9.606;2023-01-15T04:38:25;1.05;;;0.70;;
19929;SDS011;10127;47.780;9.606;2023-01-15T04:40:51;1.27;;;0.75;;
19929;SDS011;10127;47.780;9.606;2023-01-15T04:43:35;1.30;;;0.90;;
19929;SDS011;10127;47.780;9.606;2023-01-15T04:46:20;1.15;;;0.75;;
19929;SDS011;10127;47.780;9.606;2023-01-15T04:48:46;0.80;;;0.80;;
19929;SDS011;10127;47.780;9.606;2023-01-15T04:51:12;2.38;;;0.80;;
19929;SDS011;10127;47.780;9.606;2023-01-15T04:53:37;1.20;;;0.95;;
19929;SDS011;10127;47.780;9.606;2023-01-15T04:56:03;2.47;;;0.88;;
19929;SDS011;10127;47.780;9.606;2023-01-15T04:58:29;1.77;;;0.80;;
19929;SDS011;10127;47.780;9.606;2023-01-15T05:00:56;1.48;;;0.80;;
19929;SDS011;10127;47.780;9.606;2023-01-15T05:03:24;0.95;;;0.73;;
19929;SDS011;10127;47.780;9.606;2023-01-15T05:05:50;3.40;;;0.80;;
19929;SDS011;10127;47.780;9.606;2023-01-15T05:08:16;0.75;;;0.68;;
19929;SDS011;10127;47.780;9.606;2023-01-15T05:10:42;0.88;;;0.70;;
19929;SDS011;10127;47.780;9.606;2023-01-15T05:13:07;1.30;;;0.73;;
19929;SDS011;10127;47.780;9.606;2023-01-15T05:15:33;1.75;;;0.80;;
19929;SDS011;10127;47.780;9.606;2023-01-15T05:17:58;0.65;;;0.65;;
19929;SDS011;10127;47.780;9.606;2023-01-15T05:20:24;0.93;;;0.70;;
19929;SDS011;10127;47.780;9.606;2023-01-15T05:22:49;1.33;;;0.80;;
19929;SDS011;10127;47.780;9.606;2023-01-15T05:25:15;1.05;;;0.77;;
19929;SDS011;10127;47.780;9.606;2023-01-15T05:27:41;1.42;;;0.77;;
19929;SDS011;10127;47.780;9.606;2023-01-15T05:30:06;1.00;;;0.85;;
19929;SDS011;10127;47.780;9.606;2023-01-15T05:32:32;1.45;;;0.80;;
19929;SDS011;10127;47.780;9.606;2023-01-15T05:34:58;0.73;;;0.70;;
19929;SDS011;10127;47.780;9.606;2023-01-15T05:37:24;1.38;;;0.90;;
19929;SDS011;10127;47.780;9.606;2023-01-15T05:39:49;1.40;;;0.90;;
19929;SDS011;10127;47.780;9.606;2023-01-15T05:42:15;0.70;;;0.70;;
19929;SDS011;10127;47.780;9.606;2023-01-15T05:44:40;1.17;;;1.08;;
19929;SDS011;10127;47.780;9.606;2023-01-15T05:47:06;4.43;;;1.00;;
19929;SDS011;10127;47.780;9.606;2023-01-15T05:49:31;2.80;;;0.82;;
19929;SDS011;10127;47.780;9.606;2023-01-15T05:51:59;1.52;;;1.35;;
19929;SDS011;10127;47.780;9.606;2023-01-15T05:54:26;1.10;;;0.90;;
19929;SDS011;10127;47.780;9.606;2023-01-15T05:56:53;1.88;;;1.08;;
19929;SDS011;10127;47.780;9.606;2023-01-15T05:59:20;2.08;;;0.98;;
19929;SDS011;10127;47.780;9.606;2023-01-15T06:01:48;2.28;;;1.00;;
19929;SDS011;10127;47.780;9.606;2023-01-15T06:04:13;1.75;;;1.00;;
19929;SDS011;10127;47.780;9.606;2023-01-15T06:06:41;1.65;;;1.02;;
19929;SDS011;10127;47.780;9.606;2023-01-15T06:09:07;2.28;;;0.93;;
19929;SDS011;10127;47.780;9.606;2023-01-15T06:11:33;1.45;;;0.85;;
19929;SDS011;10127;47.780;9.606;2023-01-15T06:13:59;1.27;;;0.90;;
19929;SDS011;10127;47.780;9.606;2023-01-15T06:16:25;1.20;;;1.00;;
19929;SDS011;10127;47.780;9.606;2023-01-15T06:18:51;1.30;;;0.75;;
19929;SDS011;10127;47.780;9.606;2023-01-15T06:21:17;2.17;;;1.00;;
19929;SDS011;10127;47.780;9.606;2023-01-15T06:23:43;3.42;;;1.10;;
19929;SDS011;10127;47.780;9.606;2023-01-15T06:26:13;0.80;;;0.80;;
19929;SDS011;10127;47.780;9.606;2023-01-15T06:28:41;1.85;;;1.10;;
19929;SDS011;10127;47.780;9.606;2023-01-15T06:31:07;1.52;;;0.80;;
19929;SDS011;10127;47.780;9.606;2023-01-15T06:33:34;1.20;;;1.00;;
19929;SDS011;10127;47.780;9.606;2023-01-15T06:36:04;2.17;;;1.15;;
19929;SDS011;10127;47.780;9.606;2023-01-15T06:38:31;1.70;;;1.00;;
19929;SDS011;10127;47.780;9.606;2023-01-15T06:40:57;1.45;;;0.95;;
19929;SDS011;10127;47.780;9.606;2023-01-15T06:43:23;1.45;;;0.90;;
19929;SDS011;10127;47.780;9.606;2023-01-15T06:46:08;1.88;;;1.05;;
19929;SDS011;10127;47.780;9.606;2023-01-15T06:48:52;4.72;;;1.30;;
19929;SDS011;10127;47.780;9.606;2023-01-15T06:51:18;1.25;;;1.10;;
19929;SDS011;10127;47.780;9.606;2023-01-15T06:53:45;1.67;;;1.02;;
19929;SDS011;10127;47.780;9.606;2023-01-15T06:56:11;1.77;;;1.00;;
19929;SDS011;10127;47.780;9.606;2023-01-15T06:58:39;2.60;;;1.15;;
19929;SDS011;10127;47.780;9.606;2023-01-15T07:01:07;1.00;;;0.90;;
19929;SDS011;10127;47.780;9.606;2023-01-15T07:03:36;1.88;;;1.00;;
19929;SDS011;10127;47.780;9.606;2023-01-15T07:06:08;1.00;;;0.90;;
19929;SDS011;10127;47.780;9.606;2023-01-15T07:08:35;2.28;;;1.00;;
19929;SDS011;10127;47.780;9.606;2023-01-15T07:11:02;0.80;;;0.80;;
19929;SDS011;10127;47.780;9.606;2023-01-15T07:13:30;3.70;;;1.05;;
19929;SDS011;10127;47.780;9.606;2023-01-15T07:15:57;2.00;;;1.10;;
19929;SDS011;10127;47.780;9.606;2023-01-15T07:18:23;1.65;;;1.00;;
19929;SDS011;10127;47.780;9.606;2023-01-15T07:20:52;1.88;;;1.02;;
19929;SDS011;10127;47.780;9.606;2023-01-15T07:23:19;1.55;;;1.20;;
19929;SDS011;10127;47.780;9.606;2023-01-15T07:25:46;1.35;;;0.90;;
19929;SDS011;10127;47.780;9.606;2023-01-15T07:28:11;4.68;;;1.20;;
19929;SDS011;10127;47.780;9.606;2023-01-15T07:30:37;2.30;;;1.30;;
19929;SDS011;10127;47.780;9.606;2023-01-15T07:33:02;1.80;;;1.10;;
19929;SDS011;10127;47.780;9.606;2023-01-15T07:35:28;7.20;;;3.05;;
19929;SDS011;10127;47.780;9.606;2023-01-15T07:37:55;12.43;;;4.45;;
19929;SDS011;10127;47.780;9.606;2023-01-15T07:40:20;11.27;;;4.60;;
19929;SDS011;10127;47.780;9.606;2023-01-15T07:42:46;11.53;;;5.67;;
19929;SDS011;10127;47.780;9.606;2023-01-15T07:45:30;9.68;;;4.93;;
19929;SDS011;10127;47.780;9.606;2023-01-15T07:48:14;5.82;;;2.88;;
19929;SDS011;10127;47.780;9.606;2023-01-15T07:50:58;2.07;;;1.37;;
19929;SDS011;10127;47.780;9.606;2023-01-15T07:53:24;3.07;;;1.60;;
19929;SDS011;10127;47.780;9.606;2023-01-15T07:55:49;2.73;;;1.30;;
19929;SDS011;10127;47.780;9.606;2023-01-15T07:58:15;3.57;;;1.67;;
19929;SDS011;10127;47.780;9.606;2023-01-15T08:00:40;2.03;;;1.27;;
19929;SDS011;10127;47.780;9.606;2023-01-15T08:03:06;2.45;;;1.40;;
19929;SDS011;10127;47.780;9.606;2023-01-15T08:05:33;3.87;;;1.97;;
19929;SDS011;10127;47.780;9.606;2023-01-15T08:07:58;2.27;;;1.50;;
19929;SDS011;10127;47.780;9.606;2023-01-15T08:10:24;3.57;;;2.30;;
19929;SDS011;10127;47.780;9.606;2023-01-15T08:12:50;3.30;;;1.70;;
19929;SDS011;10127;47.780;9.606;2023-01-15T08:15:37;4.10;;;2.63;;
19929;SDS011;10127;47.780;9.606;2023-01-15T08:18:03;3.87;;;1.83;;
19929;SDS011;10127;47.780;9.606;2023-01-15T08:20:29;3.13;;;1.50;;
19929;SDS011;10127;47.780;9.606;2023-01-15T08:22:55;2.27;;;1.50;;
19929;SDS011;10127;47.780;9.606;2023-01-15T08:25:22;2.07;;;1.40;;
19929;SDS011;10127;47.780;9.606;2023-01-15T08:27:50;3.83;;;1.80;;
19929;SDS011;10127;47.780;9.606;2023-01-15T08:30:17;2.87;;;1.90;;
19929;SDS011;10127;47.780;9.606;2023-01-15T08:32:45;3.73;;;1.70;;
19929;SDS011;10127;47.780;9.606;2023-01-15T08:35:11;4.85;;;2.10;;
19929;SDS011;10127;47.780;9.606;2023-01-15T08:37:37;2.50;;;1.67;;
19929;SDS011;10127;47.780;9.606;2023-01-15T08:40:04;3.30;;;1.80;;
19929;SDS011;10127;47.780;9.606;2023-01-15T08:42:30;2.35;;;1.17;;
19929;SDS011;10127;47.780;9.606;2023-01-15T08:44:55;4.47;;;1.80;;
19929;SDS011;10127;47.780;9.606;2023-01-15T08:47:21;4.07;;;2.10;;
19929;SDS011;10127;47.780;9.606;2023-01-15T08:49:46;2.80;;;1.43;;
19929;SDS011;10127;47.780;9.606;2023-01-15T08:52:12;2.35;;;1.70;;
19929;SDS011;10127;47.780;9.606;2023-01-15T08:54:38;2.70;;;1.70;;
19929;SDS011;10127;47.780;9.606;2023-01-15T08:57:04;2.88;;;2.03;;
19929;SDS011;10127;47.780;9.606;2023-01-15T08:59:29;2.63;;;1.50;;
19929;SDS011;10127;47.780;9.606;2023-01-15T09:01:55;1.70;;;1.10;;
19929;SDS011;10127;47.780;9.606;2023-01-15T09:04:21;2.97;;;1.55;;
19929;SDS011;10127;47.780;9.606;2023-01-15T09:06:47;1.15;;;0.90;;
19929;SDS011;10127;47.780;9.606;2023-01-15T09:09:13;1.17;;;0.82;;
19929;SDS011;10127;47.780;9.606;2023-01-15T09:11:39;2.83;;;0.65;;
19929;SDS011;10127;47.780;9.606;2023-01-15T09:14:09;0.70;;;0.70;;
19929;SDS011;10127;47.780;9.606;2023-01-15T09:16:37;2.50;;;0.75;;
19929;SDS011;10127;47.780;9.606;2023-01-15T09:19:03;1.48;;;0.50;;
19929;SDS011;10127;47.780;9.606;2023-01-15T09:21:30;0.95;;;0.70;;
19929;SDS011;10127;47.780;9.606;2023-01-15T09:23:56;2.30;;;0.65;;
19929;SDS011;10127;47.780;9.606;2023-01-15T09:26:38;1.95;;;0.70;;
19929;SDS011;10127;47.780;9.606;2023-01-15T09:29:04;3.00;;;0.63;;
19929;SDS011;10127;47.780;9.606;2023-01-15T09:31:31;0.77;;;0.60;;
19929;SDS011;10127;47.780;9.606;2023-01-15T09:33:57;0.55;;;0.55;;
19929;SDS011;10127;47.780;9.606;2023-01-15T09:36:24;0.55;;;0.50;;
19929;SDS011;10127;47.780;9.606;2023-01-15T09:38:52;3.00;;;1.10;;
19929;SDS011;10127;47.780;9.606;2023-01-15T09:41:18;2.00;;;0.93;;
19929;SDS011;10127;47.780;9.606;2023-01-15T09:44:40;0.90;;;0.60;;
19929;SDS011;10127;47.780;9.606;2023-01-15T09:47:14;0.40;;;0.40;;
19929;SDS011;10127;47.780;9.606;2023-01-15T09:57:51;1.33;;;0.40;;
19929;SDS011;10127;47.780;9.606;2023-01-15T10:00:23;0.50;;;0.50;;
19929;SDS011;10127;47.780;9.606;2023-01-15T10:05:35;0.50;;;0.50;;
19929;SDS011;10127;47.780;9.606;2023-01-15T10:08:11;0.60;;;0.50;;
19929;SDS011;10127;47.780;9.606;2023-01-15T10:10:46;1.13;;;0.80;;
19929;SDS011;10127;47.780;9.606;2023-01-15T10:13:26;0.50;;;0.50;;
19929;SDS011;10127;47.780;9.606;2023-01-15T10:16:08;0.50;;;0.50;;
19929;SDS011;10127;47.780;9.606;2023-01-15T10:18:34;0.70;;;0.70;;
19929;SDS011;10127;47.780;9.606;2023-01-15T10:29:16;1.00;;;0.60;;
19929;SDS011;10127;47.780;9.606;2023-01-15T10:32:00;0.70;;;0.60;;
19929;SDS011;10127;47.780;9.606;2023-01-15T10:40:37;0.80;;;0.70;;
19929;SDS011;10127;47.780;9.606;2023-01-15T10:43:14;1.87;;;1.10;;
19929;SDS011;10127;47.780;9.606;2023-01-15T10:45:46;1.90;;;0.60;;
19929;SDS011;10127;47.780;9.606;2023-01-15T10:48:22;1.47;;;0.90;;
19929;SDS011;10127;47.780;9.606;2023-01-15T10:51:01;3.17;;;2.43;;
19929;SDS011;10127;47.780;9.606;2023-01-15T10:56:42;0.67;;;0.67;;
19929;SDS011;10127;47.780;9.606;2023-01-15T11:02:49;2.50;;;0.63;;
19929;SDS011;10127;47.780;9.606;2023-01-15T11:05:32;0.50;;;0.50;;
19929;SDS011;10127;47.780;9.606;2023-01-15T11:08:00;1.53;;;0.73;;
19929;SDS011;10127;47.780;9.606;2023-01-15T11:10:30;1.00;;;0.67;;
19929;SDS011;10127;47.780;9.606;2023-01-15T11:12:58;1.10;;;0.80;;
19929;SDS011;10127;47.780;9.606;2023-01-15T11:15:52;0.50;;;0.50;;
19929;SDS011;10127;47.780;9.606;2023-01-15T11:18:40;0.57;;;0.57;;
19929;SDS011;10127;47.780;9.606;2023-01-15T11:21:26;1.03;;;0.60;;
19929;SDS011;10127;47.780;9.606;2023-01-15T11:23:54;0.60;;;0.60;;
19929;SDS011;10127;47.780;9.606;2023-01-15T11:26:22;2.07;;;0.70;;
19929;SDS011;10127;47.780;9.606;2023-01-15T11:28:54;0.60;;;0.60;;
19929;SDS011;10127;47.780;9.606;2023-01-15T11:31:21;1.00;;;0.60;;
19929;SDS011;10127;47.780;9.606;2023-01-15T11:34:00;0.57;;;0.57;;
19929;SDS011;10127;47.780;9.606;2023-01-15T11:36:28;1.33;;;0.60;;
19929;SDS011;10127;47.780;9.606;2023-01-15T11:38:54;0.60;;;0.57;;
19929;SDS011;10127;47.780;9.606;2023-01-15T11:44:22;0.40;;;0.40;;
19929;SDS011;10127;47.780;9.606;2023-01-15T11:47:10;0.60;;;0.50;;
19929;SDS011;10127;47.780;9.606;2023-01-15T11:49:55;1.50;;;0.70;;
19929;SDS011;10127;47.780;9.606;2023-01-15T11:52:44;0.80;;;0.63;;
19929;SDS011;10127;47.780;9.606;2023-01-15T11:55:15;1.33;;;0.60;;
19929;SDS011;10127;47.780;9.606;2023-01-15T11:57:43;0.60;;;0.60;;
19929;SDS011;10127;47.780;9.606;2023-01-15T12:02:49;0.73;;;0.70;;
19929;SDS011;10127;47.780;9.606;2023-01-15T12:05:23;1.03;;;0.70;;
19929;SDS011;10127;47.780;9.606;2023-01-15T12:07:52;1.40;;;0.80;;
19929;SDS011;10127;47.780;9.606;2023-01-15T12:10:26;0.70;;;0.60;;
19929;SDS011;10127;47.780;9.606;2023-01-15T12:13:41;2.77;;;0.50;;
19929;SDS011;10127;47.780;9.606;2023-01-15T12:24:27;0.70;;;0.60;;
19929;SDS011;10127;47.780;9.606;2023-01-15T12:29:35;0.63;;;0.63;;
19929;SDS011;10127;47.780;9.606;2023-01-15T12:32:41;0.53;;;0.53;;
19929;SDS011;10127;47.780;9.606;2023-01-15T12:38:35;0.80;;;0.53;;
19929;SDS011;10127;47.780;9.606;2023-01-15T12:40:53;0.40;;;0.40;;
19929;SDS011;10127;47.780;9.606;2023-01-15T12:43:26;0.50;;;0.50;;
19929;SDS011;10127;47.780;9.606;2023-01-15T12:46:22;0.93;;;0.60;;
19929;SDS011;10127;47.780;9.606;2023-01-15T12:48:54;0.57;;;0.50;;
19929;SDS011;10127;47.780;9.606;2023-01-15T12:51:40;0.70;;;0.60;;
19929;SDS011;10127;47.780;9.606;2023-01-15T12:54:10;0.77;;;0.50;;
19929;SDS011;10127;47.780;9.606;2023-01-15T12:56:43;0.60;;;0.60;;
19929;SDS011;10127;47.780;9.606;2023-01-15T12:59:36;0.50;;;0.50;;
19929;SDS011;10127;47.780;9.606;2023-01-15T13:02:23;1.07;;;0.80;;
19929;SDS011;10127;47.780;9.606;2023-01-15T13:05:06;0.50;;;0.50;;
19929;SDS011;10127;47.780;9.606;2023-01-15T13:10:40;0.40;;;0.40;;
19929;SDS011;10127;47.780;9.606;2023-01-15T13:15:51;0.63;;;0.63;;
19929;SDS011;10127;47.780;9.606;2023-01-15T13:21:03;0.60;;;0.53;;
19929;SDS011;10127;47.780;9.606;2023-01-15T13:31:40;1.27;;;0.50;;
19929;SDS011;10127;47.780;9.606;2023-01-15T13:34:15;0.60;;;0.60;;
19929;SDS011;10127;47.780;9.606;2023-01-15T13:36:55;1.70;;;0.50;;
19929;SDS011;10127;47.780;9.606;2023-01-15T13:39:28;0.50;;;0.50;;
19929;SDS011;10127;47.780;9.606;2023-01-15T13:42:10;0.80;;;0.60;;
19929;SDS011;10127;47.780;9.606;2023-01-15T13:47:38;1.10;;;0.60;;
19929;SDS011;10127;47.780;9.606;2023-01-15T13:50:17;0.67;;;0.63;;
19929;SDS011;10127;47.780;9.606;2023-01-15T13:52:57;0.50;;;0.50;;
19929;SDS011;10127;47.780;9.606;2023-01-15T13:55:38;0.50;;;0.50;;
19929;SDS011;10127;47.780;9.606;2023-01-15T14:01:23;0.50;;;0.50;;
19929;SDS011;10127;47.780;9.606;2023-01-15T14:03:55;1.77;;;0.60;;
19929;SDS011;10127;47.780;9.606;2023-01-15T14:06:38;0.70;;;0.60;;
19929;SDS011;10127;47.780;9.606;2023-01-15T14:14:38;0.57;;;0.57;;
19929;SDS011;10127;47.780;9.606;2023-01-15T14:36:45;0.50;;;0.50;;
19929;SDS011;10127;47.780;9.606;2023-01-15T14:45:04;0.77;;;0.60;;
19929;SDS011;10127;47.780;9.606;2023-01-15T14:47:53;0.70;;;0.70;;
19929;SDS011;10127;47.780;9.606;2023-01-15T14:50:39;0.60;;;0.60;;
19929;SDS011;10127;47.780;9.606;2023-01-15T14:55:49;0.90;;;0.50;;
19929;SDS011;10127;47.780;9.606;2023-01-15T15:01:10;1.17;;;0.80;;
19929;SDS011;10127;47.780;9.606;2023-01-15T15:03:53;0.80;;;0.70;;
19929;SDS011;10127;47.780;9.606;2023-01-15T15:06:47;0.60;;;0.60;;
19929;SDS011;10127;47.780;9.606;2023-01-15T15:09:34;1.20;;;0.67;;
19929;SDS011;10127;47.780;9.606;2023-01-15T15:12:53;1.10;;;0.77;;
19929;SDS011;10127;47.780;9.606;2023-01-15T15:18:33;1.13;;;0.70;;
19929;SDS011;10127;47.780;9.606;2023-01-15T15:26:48;0.60;;;0.60;;
19929;SDS011;10127;47.780;9.606;2023-01-15T15:29:15;1.00;;;0.63;;
19929;SDS011;10127;47.780;9.606;2023-01-15T15:31:43;0.80;;;0.80;;
19929;SDS011;10127;47.780;9.606;2023-01-15T15:34:34;0.60;;;0.60;;
19929;SDS011;10127;47.780;9.606;2023-01-15T15:37:17;0.60;;;0.60;;
19929;SDS011;10127;47.780;9.606;2023-01-15T15:42:33;0.70;;;0.70;;
19929;SDS011;10127;47.780;9.606;2023-01-15T15:45:25;0.70;;;0.70;;
19929;SDS011;10127;47.780;9.606;2023-01-15T15:50:55;0.83;;;0.70;;
19929;SDS011;10127;47.780;9.606;2023-01-15T15:53:21;0.87;;;0.70;;
19929;SDS011;10127;47.780;9.606;2023-01-15T15:55:46;1.00;;;0.90;;
19929;SDS011;10127;47.780;9.606;2023-01-15T15:58:34;0.90;;;0.70;;
19929;SDS011;10127;47.780;9.606;2023-01-15T16:01:00;0.83;;;0.83;;
19929;SDS011;10127;47.780;9.606;2023-01-15T16:03:27;1.00;;;0.60;;
19929;SDS011;10127;47.780;9.606;2023-01-15T16:08:23;0.73;;;0.60;;
19929;SDS011;10127;47.780;9.606;2023-01-15T16:10:50;3.07;;;1.90;;
19929;SDS011;10127;47.780;9.606;2023-01-15T16:13:22;2.97;;;1.20;;
19929;SDS011;10127;47.780;9.606;2023-01-15T16:15:57;1.37;;;0.80;;
19929;SDS011;10127;47.780;9.606;2023-01-15T16:18:30;0.83;;;0.80;;
19929;SDS011;10127;47.780;9.606;2023-01-15T16:21:16;0.73;;;0.70;;
19929;SDS011;10127;47.780;9.606;2023-01-15T16:23:54;0.93;;;0.83;;
19929;SDS011;10127;47.780;9.606;2023-01-15T16:26:21;0.70;;;0.70;;
19929;SDS011;10127;47.780;9.606;2023-01-15T16:28:56;0.70;;;0.70;;
19929;SDS011;10127;47.780;9.606;2023-01-15T16:31:24;0.80;;;0.80;;
19929;SDS011;10127;47.780;9.606;2023-01-15T16:33:54;0.80;;;0.70;;
19929;SDS011;10127;47.780;9.606;2023-01-15T16:36:21;1.00;;;0.90;;
19929;SDS011;10127;47.780;9.606;2023-01-15T16:38:47;1.03;;;0.97;;
19929;SDS011;10127;47.780;9.606;2023-01-15T16:41:16;0.80;;;0.80;;
19929;SDS011;10127;47.780;9.606;2023-01-15T16:44:00;1.13;;;1.03;;
19929;SDS011;10127;47.780;9.606;2023-01-15T16:46:29;1.30;;;1.20;;
19929;SDS011;10127;47.780;9.606;2023-01-15T16:51:51;2.67;;;1.80;;
19929;SDS011;10127;47.780;9.606;2023-01-15T16:56:59;3.30;;;1.47;;
19929;SDS011;10127;47.780;9.606;2023-01-15T17:02:13;1.90;;;1.50;;
19929;SDS011;10127;47.780;9.606;2023-01-15T17:04:41;1.50;;;1.40;;
19929;SDS011;10127;47.780;9.606;2023-01-15T17:07:19;2.27;;;1.50;;
19929;SDS011;10127;47.780;9.606;2023-01-15T17:09:51;2.47;;;1.80;;
19929;SDS011;10127;47.780;9.606;2023-01-15T17:12:37;2.20;;;1.33;;
19929;SDS011;10127;47.780;9.606;2023-01-15T17:15:27;1.50;;;1.40;;
19929;SDS011;10127;47.780;9.606;2023-01-15T17:17:52;3.73;;;1.67;;
19929;SDS011;10127;47.780;9.606;2023-01-15T17:20:19;1.60;;;1.40;;
19929;SDS011;10127;47.780;9.606;2023-01-15T17:22:48;1.60;;;1.23;;
19929;SDS011;10127;47.780;9.606;2023-01-15T17:25:21;1.50;;;1.30;;
19929;SDS011;10127;47.780;9.606;2023-01-15T17:27:50;1.20;;;1.10;;
19929;SDS011;10127;47.780;9.606;2023-01-15T17:30:17;1.50;;;1.40;;
19929;SDS011;10127;47.780;9.606;2023-01-15T17:32:43;1.10;;;0.97;;
19929;SDS011;10127;47.780;9.606;2023-01-15T17:35:20;1.63;;;1.10;;
19929;SDS011;10127;47.780;9.606;2023-01-15T17:37:48;1.10;;;1.00;;
19929;SDS011;10127;47.780;9.606;2023-01-15T17:40:14;1.27;;;1.10;;
19929;SDS011;10127;47.780;9.606;2023-01-15T17:42:40;1.20;;;0.90;;
19929;SDS011;10127;47.780;9.606;2023-01-15T17:45:05;0.87;;;0.87;;
19929;SDS011;10127;47.780;9.606;2023-01-15T17:47:38;2.87;;;1.10;;
19929;SDS011;10127;47.780;9.606;2023-01-15T17:50:03;1.73;;;1.00;;
19929;SDS011;10127;47.780;9.606;2023-01-15T17:52:29;2.97;;;1.03;;
19929;SDS011;10127;47.780;9.606;2023-01-15T17:54:55;0.87;;;0.87;;
19929;SDS011;10127;47.780;9.606;2023-01-15T17:57:39;1.07;;;0.97;;
19929;SDS011;10127;47.780;9.606;2023-01-15T18:00:23;4.00;;;1.00;;
19929;SDS011;10127;47.780;9.606;2023-01-15T18:03:10;1.00;;;0.90;;